Time;durP1;ratioP1;P1;durP2;ratioP2;P2;SDS_P1;SDS_P2;PMS_P1;PMS_P2;Temp;Humidity;BMP_temperature;BMP_pressure;BME280_temperature;BME280_humidity;BME280_pressure;Samples;Min_cycle;Max_cycle;Signal;HPM_P1;HPM_P2
2023/10/18 00:02:50;;;;;;;9.07;5.85;;;;;;;6.23;96.60;101271.38;4890187;29;20021;-77
2023/10/18 00:05:17;;;;;;;10.35;6.22;;;;;;;6.21;96.17;101270.53;4852365;29;20295;-78
2023/10/18 00:07:43;;;;;;;8.55;6.05;;;;;;;6.21;96.34;101270.53;4888311;29;20066;-78
2023/10/18 00:10:09;;;;;;;9.25;6.30;;;;;;;6.20;96.48;101274.00;4861939;29;20489;-78
2023/10/18 00:12:35;;;;;;;8.98;6.07;;;;;;;6.21;96.74;101273.16;4877976;29;20045;-78
2023/10/18 00:15:01;;;;;;;8.25;5.70;;;;;;;6.19;96.53;101265.25;4881099;29;20152;-78
2023/10/18 00:17:27;;;;;;;9.30;5.93;;;;;;;6.21;96.53;101268.78;4881531;29;20041;-78
2023/10/18 00:19:53;;;;;;;9.60;6.10;;;;;;;6.21;96.20;101268.78;4892114;29;20048;-80
2023/10/18 00:22:18;;;;;;;9.52;5.85;;;;;;;6.21;96.54;101267.91;4874022;29;20052;-80
2023/10/18 00:24:43;;;;;;;10.65;6.32;;;;;;;6.19;95.75;101261.75;4890197;29;20072;-78
2023/10/18 00:27:09;;;;;;;9.60;6.43;;;;;;;6.21;96.11;101262.63;4873453;29;20067;-78
2023/10/18 00:29:36;;;;;;;11.57;6.25;;;;;;;6.19;96.13;101261.75;4878142;29;20049;-78
2023/10/18 00:32:03;;;;;;;8.75;5.88;;;;;;;6.17;95.70;101251.22;4864877;29;20029;-78
2023/10/18 00:34:29;;;;;;;8.35;5.90;;;;;;;6.13;95.91;101252.09;4852748;29;20481;-78
2023/10/18 00:36:55;;;;;;;8.13;5.43;;;;;;;6.13;95.85;101252.09;4855547;29;20077;-78
2023/10/18 00:39:28;;;;;;;8.77;5.85;;;;;;;6.13;95.91;101248.56;4880097;29;20119;-78
2023/10/18 00:41:55;;;;;;;11.27;6.38;;;;;;;6.11;96.55;101251.22;4879947;29;20511;-78
2023/10/18 00:44:21;;;;;;;8.50;6.20;;;;;;;6.11;95.82;101252.94;4890858;29;20390;-78
2023/10/18 00:46:53;;;;;;;8.85;5.65;;;;;;;6.07;96.29;101259.94;4873021;29;20530;-78
2023/10/18 00:49:20;;;;;;;8.05;6.03;;;;;;;6.09;96.49;101263.47;4879769;29;20032;-78
2023/10/18 00:51:47;;;;;;;12.23;6.22;;;;;;;6.07;96.63;101253.81;4868942;29;20553;-78
2023/10/18 00:54:14;;;;;;;9.23;6.20;;;;;;;6.06;96.83;101254.69;4877540;29;20045;-78
2023/10/18 00:56:44;;;;;;;10.20;6.00;;;;;;;6.06;96.58;101247.69;4887003;29;20071;-78
2023/10/18 00:59:26;;;;;;;9.45;6.53;;;;;;;6.07;96.52;101245.94;4879447;29;20040;-78
2023/10/18 01:02:13;;;;;;;8.63;5.90;;;;;;;6.04;96.84;101236.28;4869766;29;20060;-78
2023/10/18 01:04:40;;;;;;;12.18;6.80;;;;;;;6.02;96.60;101241.53;4869029;29;20055;-78
2023/10/18 01:07:15;;;;;;;13.00;7.10;;;;;;;5.99;96.78;101233.66;4879662;29;20453;-78
2023/10/18 01:09:47;;;;;;;10.82;6.80;;;;;;;5.98;97.32;101225.75;4879628;29;20096;-78
2023/10/18 01:12:15;;;;;;;10.57;6.55;;;;;;;5.95;96.47;101225.75;4888422;29;20041;-78
2023/10/18 01:14:44;;;;;;;11.40;6.15;;;;;;;5.92;96.72;101217.81;4879955;29;20579;-78
2023/10/18 01:17:11;;;;;;;9.57;5.95;;;;;;;5.88;97.34;101210.78;4860957;29;20057;-78
2023/10/18 01:19:40;;;;;;;11.40;6.25;;;;;;;5.89;96.71;101213.44;4883225;29;20040;-78
2023/10/18 01:22:07;;;;;;;9.07;6.40;;;;;;;5.88;97.25;101208.16;4886558;29;20032;-78
2023/10/18 01:24:34;;;;;;;11.95;6.80;;;;;;;5.87;97.44;101203.78;4899867;29;20057;-78
2023/10/18 01:27:02;;;;;;;9.50;6.70;;;;;;;5.86;97.09;101209.88;4849813;29;20045;-78
2023/10/18 01:29:28;;;;;;;10.52;6.57;;;;;;;5.87;96.94;101202.03;4865067;29;20128;-77
2023/10/18 01:31:55;;;;;;;11.35;6.95;;;;;;;5.87;97.12;101206.41;4877952;29;20040;-78
2023/10/18 01:34:21;;;;;;;10.00;6.43;;;;;;;5.84;97.19;101202.03;4852536;29;20044;-78
2023/10/18 01:36:46;;;;;;;8.10;6.20;;;;;;;5.81;96.76;101187.13;4859525;29;20100;-78
2023/10/18 01:39:21;;;;;;;8.93;5.75;;;;;;;5.80;96.68;101181.84;4845176;29;20108;-78
2023/10/18 01:41:48;;;;;;;9.82;6.53;;;;;;;5.80;96.49;101182.72;4857750;29;20178;-78
2023/10/18 01:44:18;;;;;;;7.55;5.95;;;;;;;5.78;97.30;101173.94;4876810;29;20045;-78
2023/10/18 01:46:46;;;;;;;8.20;5.95;;;;;;;5.74;97.23;101164.31;4863805;29;20064;-78
2023/10/18 01:49:17;;;;;;;8.68;6.40;;;;;;;5.75;97.42;101173.06;4893616;29;20466;-78
2023/10/18 01:51:44;;;;;;;11.90;6.10;;;;;;;5.74;96.87;101166.06;4879077;29;20514;-78
2023/10/18 01:54:13;;;;;;;8.80;6.15;;;;;;;5.73;96.78;101162.53;4888942;29;20188;-78
2023/10/18 01:56:43;;;;;;;8.90;6.07;;;;;;;5.72;96.58;101155.56;4882650;29;20091;-78
2023/10/18 01:59:13;;;;;;;10.32;6.22;;;;;;;5.72;97.00;101154.69;4882153;29;20060;-78
2023/10/18 02:01:44;;;;;;;10.07;6.60;;;;;;;5.72;97.06;101152.91;4866616;29;20153;-79
2023/10/18 02:04:11;;;;;;;9.73;6.47;;;;;;;5.68;97.12;101147.66;4882812;29;20136;-79
2023/10/18 02:06:37;;;;;;;15.80;6.18;;;;;;;5.69;97.38;101150.28;4875465;29;20108;-78
2023/10/18 02:09:10;;;;;;;12.18;6.40;;;;;;;5.68;97.17;101143.25;4898698;29;20088;-77
2023/10/18 02:11:36;;;;;;;10.43;6.20;;;;;;;5.69;97.17;101136.28;4844368;29;20482;-78
2023/10/18 02:14:02;;;;;;;10.45;6.43;;;;;;;5.66;96.80;101139.75;4871868;29;20093;-77
2023/10/18 02:16:28;;;;;;;9.02;6.22;;;;;;;5.66;96.60;101136.25;4844053;29;20038;-77
2023/10/18 02:18:54;;;;;;;10.07;5.85;;;;;;;5.65;97.07;101132.75;4832506;29;20033;-78
2023/10/18 02:21:23;;;;;;;8.55;5.63;;;;;;;5.62;97.13;101116.97;4862875;29;20052;-78
2023/10/18 02:23:51;;;;;;;11.98;5.97;;;;;;;5.61;97.29;101123.09;4853069;29;20136;-78
2023/10/18 02:28:54;;;;;;;10.55;6.38;;;;;;;5.58;96.88;101120.47;4883481;29;20037;-78
2023/10/18 02:31:22;;;;;;;9.88;6.32;;;;;;;5.56;96.57;101114.31;4880816;29;20405;-78
2023/10/18 02:33:48;;;;;;;8.95;5.90;;;;;;;5.56;97.30;101125.72;4877915;29;20100;-77
2023/10/18 02:36:21;;;;;;;11.85;6.43;;;;;;;5.57;96.89;101114.34;4847043;29;20457;-78
2023/10/18 02:38:49;;;;;;;10.10;6.38;;;;;;;5.58;97.14;101109.97;4858259;29;20125;-78
2023/10/18 02:41:19;;;;;;;7.90;6.20;;;;;;;5.59;97.13;101109.09;4875608;29;20064;-78
2023/10/18 02:43:54;;;;;;;7.83;5.80;;;;;;;5.57;96.76;101114.34;4878278;29;20396;-78
2023/10/18 02:46:25;;;;;;;9.02;6.40;;;;;;;5.56;96.47;101104.72;4862355;29;20305;-78
2023/10/18 02:48:55;;;;;;;9.57;6.13;;;;;;;5.54;96.85;101105.59;4859267;29;20037;-78
2023/10/18 02:51:22;;;;;;;9.02;5.70;;;;;;;5.50;96.65;101107.31;4860760;29;20060;-78
2023/10/18 02:53:52;;;;;;;10.40;6.10;;;;;;;5.49;96.47;101094.16;4889163;29;20070;-78
2023/10/18 02:56:27;;;;;;;11.00;6.57;;;;;;;5.54;96.67;101092.44;4889309;29;20388;-77
2023/10/18 02:58:55;;;;;;;8.70;5.82;;;;;;;5.52;96.38;101094.19;4863431;29;20040;-78
2023/10/18 03:01:21;;;;;;;9.63;6.18;;;;;;;5.50;96.56;101083.66;4882576;29;20037;-78
2023/10/18 03:03:49;;;;;;;8.55;6.30;;;;;;;5.49;96.70;101083.66;4857535;29;20048;-79
2023/10/18 03:06:16;;;;;;;9.23;6.20;;;;;;;5.47;96.30;101083.66;4897859;29;20044;-80
2023/10/18 03:08:47;;;;;;;10.10;6.10;;;;;;;5.47;96.70;101082.78;4869130;29;20047;-80
2023/10/18 03:11:12;;;;;;;9.00;6.05;;;;;;;5.48;96.59;101088.03;4844237;29;20033;-78
2023/10/18 03:13:42;;;;;;;11.07;6.40;;;;;;;5.49;96.34;101083.66;4871615;29;20052;-80
2023/10/18 03:16:15;;;;;;;8.55;5.95;;;;;;;5.49;96.24;101074.06;4869796;29;20088;-80
2023/10/18 03:18:44;;;;;;;10.70;5.13;;;;;;;5.48;95.90;101066.16;4870826;29;20448;-79
2023/10/18 03:21:20;;;;;;;9.35;5.82;;;;;;;5.45;96.62;101064.41;4895013;29;20047;-80
2023/10/18 03:23:51;;;;;;;8.45;5.85;;;;;;;5.43;96.23;101058.25;4887532;29;20048;-79
2023/10/18 03:26:23;;;;;;;9.85;5.57;;;;;;;5.45;96.49;101063.53;4895129;29;20416;-79
2023/10/18 03:28:51;;;;;;;12.93;5.60;;;;;;;5.45;96.30;101059.13;4897685;29;20037;-79
2023/10/18 03:31:34;;;;;;;12.27;5.90;;;;;;;5.44;96.16;101062.66;4880119;29;20056;-79
2023/10/18 03:34:02;;;;;;;8.85;5.80;;;;;;;5.45;96.05;101058.28;4896823;29;20146;-79
2023/10/18 03:36:32;;;;;;;9.25;5.72;;;;;;;5.40;96.02;101042.50;4864299;29;20051;-78
2023/10/18 03:39:10;;;;;;;8.75;5.25;;;;;;;5.43;96.04;101049.50;4873313;29;20120;-83
2023/10/18 03:41:40;;;;;;;8.45;5.25;;;;;;;5.41;95.89;101048.63;4875612;29;20033;-82
2023/10/18 03:44:09;;;;;;;14.57;6.07;;;;;;;5.42;95.98;101040.75;4854257;29;20073;-83
2023/10/18 03:49:16;;;;;;;10.18;6.28;;;;;;;5.40;95.87;101032.00;4861903;29;20548;-83
2023/10/18 03:51:46;;;;;;;11.82;5.93;;;;;;;5.39;95.92;101025.00;4878318;29;20504;-83
2023/10/18 03:54:15;;;;;;;8.82;6.07;;;;;;;5.40;96.35;101029.38;4878316;29;20053;-82
2023/10/18 03:56:43;;;;;;;9.65;5.95;;;;;;;5.37;95.87;101024.97;4873210;29;20353;-84
2023/10/18 03:59:21;;;;;;;6.75;5.43;;;;;;;5.43;95.82;101015.38;4883964;29;20070;-82
2023/10/18 04:04:36;;;;;;;11.90;5.90;;;;;;;5.46;95.77;101008.34;4878250;29;20033;-83
2023/10/18 04:07:12;;;;;;;10.20;6.10;;;;;;;5.45;96.07;101009.25;4891217;29;20124;-83
2023/10/18 04:09:46;;;;;;;9.40;6.03;;;;;;;5.45;96.37;101000.50;4886565;29;20515;-82
2023/10/18 04:12:16;;;;;;;15.02;6.43;;;;;;;5.47;95.47;100998.75;4862988;29;20045;-83
2023/10/18 04:14:52;;;;;;;9.13;6.22;;;;;;;5.47;96.06;100990.88;4886637;29;20523;-83
2023/10/18 04:22:47;;;;;;;11.45;5.53;;;;;;;5.46;95.02;100989.09;4896499;29;20092;-83
2023/10/18 04:25:56;;;;;;;7.97;5.30;;;;;;;5.50;95.15;100977.72;4869055;29;20469;-83
2023/10/18 04:28:05;;;;;;;11.25;5.85;;;;;;;5.50;95.43;100975.97;4880630;29;20065;-82
2023/10/18 04:30:30;;;;;;;10.05;5.93;;;;;;;5.52;95.10;100976.00;4883704;29;20097;-83
2023/10/18 04:35:36;;;;;;;8.10;5.43;;;;;;;5.50;95.15;100965.47;4869096;29;20041;-83
2023/10/18 04:38:20;;;;;;;9.57;5.97;;;;;;;5.52;95.31;100966.34;4872296;29;20049;-82
2023/10/18 04:43:32;;;;;;;9.80;5.70;;;;;;;5.53;95.21;100959.34;4848995;29;20056;-82
2023/10/18 04:46:01;;;;;;;11.25;6.22;;;;;;;5.54;94.89;100955.84;4872006;29;20037;-82
2023/10/18 04:48:59;;;;;;;10.10;5.85;;;;;;;5.54;94.88;100950.59;4899913;29;20024;-83
2023/10/18 04:51:26;;;;;;;8.43;6.03;;;;;;;5.54;95.13;100950.59;4899291;29;20041;-83
2023/10/18 04:54:00;;;;;;;7.75;4.97;;;;;;;5.53;94.64;100946.19;4881482;29;20045;-84
2023/10/18 04:56:37;;;;;;;11.15;6.15;;;;;;;5.52;94.31;100940.09;4881372;29;20060;-83
2023/10/18 04:59:11;;;;;;;8.65;5.80;;;;;;;5.53;94.91;100943.56;4887333;29;20124;-83
2023/10/18 05:01:56;;;;;;;10.63;5.97;;;;;;;5.49;94.79;100932.22;4870658;29;20037;-83
2023/10/18 05:04:28;;;;;;;8.27;5.47;;;;;;;5.51;94.34;100938.31;4853501;29;20041;-83
2023/10/18 05:06:55;;;;;;;10.52;5.35;;;;;;;5.50;94.30;100933.94;4865562;29;20056;-83
2023/10/18 05:09:34;;;;;;;12.70;5.82;;;;;;;5.52;94.71;100928.69;4861163;29;20049;-82
2023/10/18 05:12:07;;;;;;;7.80;5.22;;;;;;;5.52;94.76;100932.19;4868461;29;20128;-82
2023/10/18 05:14:42;;;;;;;8.55;6.07;;;;;;;5.53;94.14;100936.56;4899601;29;20187;-83
2023/10/18 05:17:10;;;;;;;8.82;5.25;;;;;;;5.55;94.48;100928.69;4899608;29;20499;-83
2023/10/18 05:19:41;;;;;;;8.65;5.65;;;;;;;5.53;94.64;100933.94;4899400;29;20405;-82
2023/10/18 05:22:08;;;;;;;10.13;6.00;;;;;;;5.54;93.79;100917.31;4882661;29;20059;-83
2023/10/18 05:24:37;;;;;;;10.93;6.28;;;;;;;5.54;94.61;100916.44;4864197;29;20292;-82
2023/10/18 05:27:19;;;;;;;8.77;6.28;;;;;;;5.53;94.47;100918.19;4892668;29;20081;-82
2023/10/18 05:29:52;;;;;;;12.40;6.10;;;;;;;5.55;94.34;100913.81;4858427;29;20076;-85
2023/10/18 05:37:58;;;;;;;10.13;6.15;;;;;;;5.54;93.96;100908.56;4887355;29;20120;-83
2023/10/18 05:43:06;;;;;;;9.00;5.63;;;;;;;5.52;93.80;100908.56;4894602;29;20508;-83
2023/10/18 05:45:33;;;;;;;9.80;6.20;;;;;;;5.51;94.19;100898.91;4881603;29;20385;-82
2023/10/18 05:48:17;;;;;;;9.15;5.80;;;;;;;5.51;93.92;100898.91;4893089;29;20120;-83
2023/10/18 05:50:49;;;;;;;10.13;5.75;;;;;;;5.52;93.95;100903.31;4892430;29;20044;-83
2023/10/18 05:53:19;;;;;;;8.98;5.78;;;;;;;5.53;94.08;100894.53;4894340;29;20437;-83
2023/10/18 05:55:55;;;;;;;10.68;5.63;;;;;;;5.53;93.44;100888.41;4875439;29;20072;-82
2023/10/18 05:58:27;;;;;;;10.35;5.50;;;;;;;5.51;93.53;100888.41;4868039;29;20108;-83
2023/10/18 06:00:57;;;;;;;8.25;5.88;;;;;;;5.52;93.62;100895.44;4882314;29;20077;-82
2023/10/18 06:03:26;;;;;;;7.85;5.65;;;;;;;5.51;93.03;100885.78;4886334;29;20048;-83
2023/10/18 06:05:58;;;;;;;8.48;5.63;;;;;;;5.51;93.38;100887.53;4879115;29;20307;-82
2023/10/18 06:08:24;;;;;;;9.02;4.95;;;;;;;5.52;93.23;100878.78;4876093;29;20535;-83
2023/10/18 06:10:58;;;;;;;9.10;5.97;;;;;;;5.50;93.40;100877.91;4848625;29;20123;-84
2023/10/18 06:13:26;;;;;;;9.30;5.63;;;;;;;5.50;92.89;100877.91;4891890;29;20480;-82
2023/10/18 06:15:52;;;;;;;8.85;5.82;;;;;;;5.50;92.51;100876.16;4885813;29;20085;-82
2023/10/18 06:18:26;;;;;;;7.40;5.63;;;;;;;5.53;92.88;100877.91;4889182;29;20037;-83
2023/10/18 06:20:53;;;;;;;11.15;5.57;;;;;;;5.52;93.18;100868.28;4876531;29;20059;-82
2023/10/18 06:23:36;;;;;;;11.50;5.20;;;;;;;5.53;93.07;100864.78;4864112;29;20041;-82
2023/10/18 06:28:49;;;;;;;8.88;5.47;;;;;;;5.52;93.03;100866.53;4886791;29;20512;-82
2023/10/18 06:31:14;;;;;;;13.95;5.78;;;;;;;5.54;93.31;100856.91;4864968;29;20049;-83
2023/10/18 06:33:40;;;;;;;9.80;5.70;;;;;;;5.54;92.65;100856.91;4890674;29;20053;-83
2023/10/18 06:36:12;;;;;;;11.40;6.15;;;;;;;5.54;92.80;100849.03;4869591;29;20545;-83
2023/10/18 06:38:37;;;;;;;9.27;5.13;;;;;;;5.56;93.19;100833.25;4852853;29;20128;-84
2023/10/18 06:41:11;;;;;;;8.35;5.47;;;;;;;5.56;92.78;100830.63;4862985;29;20136;-82
2023/10/18 06:43:37;;;;;;;8.65;5.53;;;;;;;5.58;92.46;100831.50;4861534;29;20132;-82
2023/10/18 06:46:04;;;;;;;8.23;5.28;;;;;;;5.58;92.87;100828.88;4879783;29;20155;-82
2023/10/18 06:48:33;;;;;;;11.35;5.35;;;;;;;5.58;91.86;100828.88;4882910;29;20115;-82
2023/10/18 06:50:59;;;;;;;11.40;5.82;;;;;;;5.58;91.90;100827.09;4872363;29;20081;-83
2023/10/18 06:53:26;;;;;;;8.95;5.20;;;;;;;5.62;92.18;100824.50;4892696;29;20024;-83
2023/10/18 06:56:07;;;;;;;8.27;5.38;;;;;;;5.61;91.92;100826.22;4879294;29;20255;-82
2023/10/18 07:01:09;;;;;;;10.52;5.88;;;;;;;5.69;91.81;100820.97;4882938;29;20061;-82
2023/10/18 07:03:34;;;;;;;13.00;5.63;;;;;;;5.71;90.97;100811.31;4858672;29;20048;-82
2023/10/18 07:06:18;;;;;;;9.70;4.90;;;;;;;5.75;91.39;100815.69;4879363;29;20417;-82
2023/10/18 07:08:45;;;;;;;10.00;5.65;;;;;;;5.75;91.31;100808.69;4878727;29;20484;-83
2023/10/18 07:11:17;;;;;;;10.98;5.78;;;;;;;5.79;91.20;100804.31;4862548;29;20047;-82
2023/10/18 07:13:46;;;;;;;;;;;;;;;5.86;91.46;100813.03;4892884;29;20483;-82
2023/10/18 07:16:15;;;;;;;10.98;5.70;;;;;;;5.85;90.56;100811.28;4879133;29;19926;-83
2023/10/18 07:18:44;;;;;;;10.00;5.70;;;;;;;5.89;90.93;100813.03;4862611;29;20044;-83
2023/10/18 07:21:11;;;;;;;9.57;6.00;;;;;;;5.91;90.66;100820.03;4849495;29;20045;-82
2023/10/18 07:23:37;;;;;;;10.10;5.63;;;;;;;5.95;90.45;100807.78;4862489;29;20056;-82
2023/10/18 07:26:13;;;;;;;8.02;5.32;;;;;;;5.98;91.99;100808.66;4866226;29;20080;-82
2023/10/18 07:28:40;;;;;;;9.00;5.13;;;;;;;6.03;90.78;100800.72;4881039;29;20052;-82
2023/10/18 07:31:09;;;;;;;10.98;5.57;;;;;;;6.05;90.86;100791.09;4867580;29;20040;-82
2023/10/18 07:33:40;;;;;;;12.60;6.07;;;;;;;6.11;90.38;100791.09;4893832;29;20437;-82
2023/10/18 07:36:07;;;;;;;;;;;;;;;6.17;90.42;100783.16;4897729;29;20041;-83
2023/10/18 07:38:32;;;;;;;7.38;4.95;;;;;;;6.16;88.87;100776.16;4882251;29;20355;-82
2023/10/18 07:41:02;;;;;;;8.82;5.80;;;;;;;6.19;89.59;100775.28;4880284;29;20037;-82
2023/10/18 07:43:27;;;;;;;8.63;5.15;;;;;;;6.23;88.99;100772.63;4893356;29;20211;-81
2023/10/18 07:45:53;;;;;;;10.68;5.82;;;;;;;6.29;89.84;100768.22;4846445;29;20116;-82
2023/10/18 07:48:19;;;;;;;11.82;5.82;;;;;;;6.34;88.91;100769.06;4880047;29;20040;-82
2023/10/18 07:50:50;;;;;;;19.85;7.88;;;;;;;6.38;88.81;100763.78;4896921;29;20047;-82
2023/10/18 07:53:20;;;;;;;14.45;6.65;;;;;;;6.43;88.31;100750.59;4896334;29;20123;-82
2023/10/18 07:55:56;;;;;;;8.10;5.43;;;;;;;6.48;87.75;100761.97;4881260;29;20520;-82
2023/10/18 07:58:25;;;;;;;12.98;5.47;;;;;;;6.50;88.28;100749.66;4891670;29;20054;-82
2023/10/18 08:03:44;;;;;;;8.90;5.35;;;;;;;6.60;87.80;100756.63;4846691;29;20068;-82
2023/10/18 08:06:15;;;;;;;12.43;5.53;;;;;;;6.66;86.99;100751.31;4869287;29;20176;-83
2023/10/18 08:08:42;;;;;;;8.98;5.10;;;;;;;6.73;88.00;100760.03;4866600;29;20044;-82
2023/10/18 08:11:11;;;;;;;8.18;5.13;;;;;;;6.78;86.65;100752.09;4878040;29;20056;-82
2023/10/18 08:13:47;;;;;;;10.80;5.70;;;;;;;6.83;87.11;100742.41;4861968;29;20178;-82
2023/10/18 08:16:19;;;;;;;13.27;5.65;;;;;;;6.90;87.76;100754.66;4896568;29;20436;-82
2023/10/18 08:18:52;;;;;;;12.38;6.07;;;;;;;6.98;87.20;100750.19;4896324;29;20044;-82
2023/10/18 08:21:28;;;;;;;8.57;6.15;;;;;;;7.04;85.87;100734.31;4861223;29;20040;-82
2023/10/18 08:23:57;;;;;;;12.20;5.70;;;;;;;7.09;85.52;100735.13;4878519;29;20072;-82
2023/10/18 08:26:26;;;;;;;8.55;5.05;;;;;;;7.18;85.04;100741.22;4879778;29;20044;-82
2023/10/18 08:28:53;;;;;;;10.05;5.03;;;;;;;7.25;85.36;100748.19;4867377;29;20037;-82
2023/10/18 08:33:57;;;;;;;8.95;5.40;;;;;;;7.40;84.28;100736.63;4875698;29;20040;-81
2023/10/18 08:36:29;;;;;;;11.52;5.15;;;;;;;7.45;83.59;100730.41;4862367;29;20188;-82
2023/10/18 08:38:56;;;;;;;9.43;5.10;;;;;;;7.54;83.58;100726.78;4884949;29;20396;-82
2023/10/18 08:41:33;;;;;;;9.05;5.25;;;;;;;7.66;82.62;100731.03;4861776;29;20157;-82
2023/10/18 08:44:19;;;;;;;7.70;4.63;;;;;;;7.74;81.97;100730.09;4878888;29;20029;-83
2023/10/18 08:49:22;;;;;;;9.27;5.20;;;;;;;7.92;81.91;100718.44;4877784;29;20473;-83
2023/10/18 08:51:54;;;;;;;12.70;5.47;;;;;;;8.02;82.29;100719.19;4866930;29;20550;-82
2023/10/18 08:54:22;;;;;;;12.68;5.60;;;;;;;8.12;80.47;100706.75;4896360;29;20040;-82
2023/10/18 08:56:48;;;;;;;13.70;5.32;;;;;;;8.18;81.52;100702.25;4882897;29;20501;-82
2023/10/18 08:59:18;;;;;;;12.70;5.18;;;;;;;8.28;80.75;100696.84;4889574;29;20037;-82
2023/10/18 09:02:08;;;;;;;7.10;5.13;;;;;;;8.36;80.43;100687.06;4864428;29;20030;-83
2023/10/18 09:04:31;;;;;;;11.15;5.72;;;;;;;8.45;80.63;100686.06;4886313;29;20044;-82
2023/10/18 09:07:00;;;;;;;12.25;6.05;;;;;;;8.53;80.17;100692.06;4850828;29;20045;-82
2023/10/18 09:09:35;;;;;;;11.88;5.25;;;;;;;8.60;80.05;100675.25;4889338;29;20045;-82
2023/10/18 09:12:14;;;;;;;11.38;5.93;;;;;;;8.65;79.32;100670.75;4878033;29;20057;-82
2023/10/18 09:14:41;;;;;;;9.80;5.05;;;;;;;8.70;78.23;100668.91;4896334;29;20040;-82
2023/10/18 09:17:10;;;;;;;10.68;5.20;;;;;;;8.75;79.38;100660.91;4895287;29;20057;-83
2023/10/18 09:19:38;;;;;;;10.35;5.40;;;;;;;8.78;78.42;100664.41;4845939;29;20060;-82
2023/10/18 09:22:04;;;;;;;7.22;4.97;;;;;;;8.87;80.00;100666.00;4837507;29;20033;-82
2023/10/18 09:24:31;;;;;;;11.68;5.82;;;;;;;8.97;78.36;100657.00;4860741;29;20140;-82
2023/10/18 09:26:58;;;;;;;10.65;5.47;;;;;;;9.07;79.51;100652.41;4861396;29;20045;-82
2023/10/18 09:29:26;;;;;;;10.15;5.40;;;;;;;9.16;79.50;100652.25;4880648;29;20389;-82
2023/10/18 09:32:03;;;;;;;8.05;5.25;;;;;;;9.26;78.45;100656.47;4880157;29;20041;-81
2023/10/18 09:34:34;;;;;;;10.82;5.18;;;;;;;9.39;79.33;100653.56;4872548;29;20033;-82
2023/10/18 09:37:00;;;;;;;12.02;5.97;;;;;;;9.49;77.15;100641.91;4845288;29;20044;-83
2023/10/18 09:39:37;;;;;;;11.32;5.32;;;;;;;9.50;75.59;100637.53;4887923;29;20045;-82
2023/10/18 09:42:06;;;;;;;10.10;5.15;;;;;;;9.56;77.42;100638.25;4879196;29;20032;-83
2023/10/18 09:44:32;;;;;;;12.35;5.60;;;;;;;9.63;76.06;100628.41;4872982;29;20488;-82
2023/10/18 09:46:59;;;;;;;9.27;5.32;;;;;;;9.69;76.16;100628.28;4881639;29;20044;-81
2023/10/18 09:49:26;;;;;;;8.63;5.20;;;;;;;9.77;76.25;100617.56;4900035;29;20393;-83
2023/10/18 09:51:53;;;;;;;13.10;5.10;;;;;;;9.87;74.15;100617.31;4896850;29;20140;-83
2023/10/18 09:54:21;;;;;;;9.85;5.57;;;;;;;9.94;74.33;100606.56;4889375;29;20036;-84
2023/10/18 09:56:48;;;;;;;9.40;6.07;;;;;;;9.98;74.44;100593.25;4853574;29;20527;-83
2023/10/18 09:59:25;;;;;;;9.48;5.50;;;;;;;10.13;75.31;100587.59;4868704;29;20034;-82
2023/10/18 10:02:00;;;;;;;10.30;5.30;;;;;;;10.34;75.35;100601.25;4870948;29;20523;-83
2023/10/18 10:04:32;;;;;;;9.07;5.35;;;;;;;10.48;74.12;100591.19;4874968;29;20037;-83
2023/10/18 10:09:46;;;;;;;8.95;5.55;;;;;;;10.71;73.30;100580.00;4863932;29;20124;-83
2023/10/18 10:12:15;;;;;;;11.80;5.18;;;;;;;10.83;73.20;100565.56;4893553;29;20037;-82
2023/10/18 10:14:41;;;;;;;12.70;5.75;;;;;;;10.94;72.79;100557.31;4880786;29;20132;-83
2023/10/18 10:17:15;;;;;;;9.55;5.75;;;;;;;11.04;71.70;100565.88;4894291;29;20442;-82
2023/10/18 10:19:52;;;;;;;10.82;5.55;;;;;;;11.10;71.60;100545.38;4891844;29;20037;-82
2023/10/18 10:22:24;;;;;;;16.42;5.88;;;;;;;11.35;74.22;100550.81;4880361;29;20041;-82
2023/10/18 10:24:59;;;;;;;8.93;5.30;;;;;;;11.49;70.80;100544.22;4863499;29;20045;-83
2023/10/18 10:32:48;;;;;;;9.20;5.00;;;;;;;11.67;68.36;100516.25;4879952;29;20063;-82
2023/10/18 10:35:15;;;;;;;7.82;5.30;;;;;;;11.70;68.88;100510.88;4892823;29;20037;-82
2023/10/18 10:37:50;;;;;;;11.52;5.32;;;;;;;11.74;69.92;100505.41;4853537;29;20045;-81
2023/10/18 10:43:04;;;;;;;8.60;4.78;;;;;;;11.95;69.82;100489.75;4898602;29;20064;-82
2023/10/18 10:45:35;;;;;;;12.18;5.32;;;;;;;12.04;68.37;100476.16;4873823;29;20036;-83
2023/10/18 10:51:22;;;;;;;9.75;5.72;;;;;;;12.30;71.23;100475.28;4877309;29;20044;-82
2023/10/18 10:53:57;;;;;;;9.13;5.63;;;;;;;12.55;68.53;100471.75;4863135;29;20041;-82
2023/10/18 10:56:23;;;;;;;8.90;5.45;;;;;;;12.65;67.61;100466.03;4879244;29;20061;-81
2023/10/18 10:59:15;;;;;;;8.52;5.15;;;;;;;12.75;67.81;100461.25;4879710;29;20033;-82
2023/10/18 11:01:57;;;;;;;8.10;5.07;;;;;;;12.87;67.35;100459.94;4866481;29;20037;-82
2023/10/18 11:04:25;;;;;;;9.05;5.82;;;;;;;12.97;67.00;100461.34;4875883;29;20052;-82
2023/10/18 11:06:57;;;;;;;11.90;5.78;;;;;;;13.06;65.23;100446.84;4884574;29;20068;-81
2023/10/18 11:09:32;;;;;;;9.68;5.32;;;;;;;13.13;66.29;100451.00;4862706;29;20093;-83
2023/10/18 11:12:03;;;;;;;7.65;5.15;;;;;;;13.03;66.01;100446.94;4863384;29;20115;-83
2023/10/18 11:14:30;;;;;;;10.27;5.40;;;;;;;13.09;66.76;100430.75;4879320;29;20049;-84
2023/10/18 11:17:17;;;;;;;10.25;4.97;;;;;;;13.35;66.38;100429.75;4879265;29;20477;-83
2023/10/18 11:19:53;;;;;;;6.93;5.22;;;;;;;13.46;65.72;100424.88;4835884;29;20038;-85
2023/10/18 11:22:32;;;;;;;15.70;5.63;;;;;;;13.62;66.68;100417.13;4876697;29;20069;-84
2023/10/18 11:25:00;;;;;;;7.68;5.15;;;;;;;13.80;65.81;100407.53;4888964;29;20037;-84
2023/10/18 11:27:33;;;;;;;8.82;5.03;;;;;;;13.92;64.04;100399.03;4894600;29;20480;-84
2023/10/18 11:30:33;;;;;;;8.38;5.30;;;;;;;14.03;66.06;100408.34;4887701;29;20503;-84
2023/10/18 11:32:54;;;;;;;10.20;5.38;;;;;;;14.09;62.85;100397.41;4895162;29;20052;-84
2023/10/18 11:35:27;;;;;;;9.32;5.00;;;;;;;14.23;65.95;100391.50;4891454;29;20041;-83
2023/10/18 11:37:53;;;;;;;10.80;5.30;;;;;;;14.32;62.22;100377.78;4873237;29;20039;-83
2023/10/18 11:40:21;;;;;;;9.02;5.82;;;;;;;14.42;63.91;100371.13;4862244;29;20516;-84
2023/10/18 11:43:09;;;;;;;11.25;6.07;;;;;;;14.63;65.40;100358.63;4879038;29;20088;-85
2023/10/18 11:45:39;;;;;;;11.15;5.10;;;;;;;14.73;62.66;100367.06;4865612;29;20049;-84
2023/10/18 11:48:06;;;;;;;10.65;5.53;;;;;;;14.76;62.36;100369.56;4878671;29;20093;-84
2023/10/18 11:50:40;;;;;;;8.25;5.13;;;;;;;14.94;64.60;100352.72;4862089;29;20075;-84
2023/10/18 11:53:12;;;;;;;9.00;5.07;;;;;;;14.98;60.21;100351.63;4849933;29;20080;-85
2023/10/18 11:55:58;;;;;;;8.93;5.00;;;;;;;15.05;63.06;100347.72;4865019;29;20569;-85
2023/10/18 11:58:29;;;;;;;15.32;6.07;;;;;;;15.15;61.00;100333.94;4878546;29;20041;-84
2023/10/18 12:00:58;;;;;;;9.63;5.38;;;;;;;15.26;59.27;100326.31;4861649;29;20132;-85
2023/10/18 12:03:27;;;;;;;11.07;5.25;;;;;;;15.28;60.63;100321.72;4891520;29;20373;-84
2023/10/18 12:05:57;;;;;;;8.85;4.57;;;;;;;15.38;63.97;100315.03;4865730;29;20079;-84
2023/10/18 12:08:24;;;;;;;11.50;5.15;;;;;;;15.43;60.63;100317.44;4878617;29;20052;-84
2023/10/18 12:10:52;;;;;;;8.38;5.18;;;;;;;15.54;60.45;100300.91;4861588;29;20085;-84
2023/10/18 12:13:20;;;;;;;8.18;5.07;;;;;;;15.56;58.25;100297.22;4878615;29;20552;-85
2023/10/18 12:15:47;;;;;;;6.25;4.65;;;;;;;15.39;57.66;100292.72;4874751;29;20033;-84
2023/10/18 12:18:14;;;;;;;9.90;5.05;;;;;;;15.50;60.89;100297.50;4861586;29;20096;-83
2023/10/18 12:20:45;;;;;;;8.27;5.00;;;;;;;15.60;58.78;100284.56;4867239;29;20393;-83
2023/10/18 12:23:21;;;;;;;11.32;5.30;;;;;;;15.71;61.44;100273.38;4871817;29;20104;-84
2023/10/18 12:25:47;;;;;;;8.85;5.40;;;;;;;15.82;60.43;100271.00;4861390;29;20037;-83
2023/10/18 12:28:34;;;;;;;10.68;5.40;;;;;;;15.83;58.59;100264.72;4870549;29;20052;-83
2023/10/18 12:31:09;;;;;;;12.60;5.35;;;;;;;15.82;58.56;100271.84;4861821;29;20043;-84
2023/10/18 12:33:35;;;;;;;11.48;4.80;;;;;;;15.97;59.70;100256.81;4877717;29;20370;-84
2023/10/18 12:36:01;;;;;;;11.07;5.47;;;;;;;16.03;56.92;100255.66;4852861;29;20045;-85
2023/10/18 12:38:34;;;;;;;12.40;5.40;;;;;;;16.16;56.51;100242.47;4860620;29;20060;-85
2023/10/18 12:41:17;;;;;;;10.32;5.00;;;;;;;16.20;56.41;100236.91;4877997;29;20033;-84